Terminal Aerodrome Forecast
Issued by NWS Knoxville/Tri Cities, TN

Home | Current Version | Previous Version | Text Only | Print | Product List | Glossary On
Versions: 1 2 3 4 5 6 7 8 9 10 11 12 13 14 15
000
FTUS44 KMRX 121120
TAFCHA
TAF
KCHA 121120Z 1212/1312 03011G17KT 6SM -SHRA OVC045
     FM121500 03013G20KT P6SM VCSH OVC025
     FM121800 04008KT P6SM SCT020 OVC040
     FM130300 02003KT P6SM SCT050 BKN080=

USA.gov is the U.S. government's official web portal to all federal, state and local government web resources and services.